Terminal Aerodrome Forecast
Issued by NWS

Home | Current Version | Previous Version | Text Only | Print | Product List | Glossary On
Versions: 1 2 3 4 5 6 7 8 9 10 11 12 13
480
FTUS43 KPAH 240520
TAFCGI
TAF
KCGI 240520Z 2406/2506 33005KT P6SM SCT050 BKN100
      TEMPO 2407/2411 -RA BKN035
     FM241400 32008KT P6SM BKN050
     FM250000 27004KT P6SM FEW100=

USA.gov is the U.S. government's official web portal to all federal, state and local government web resources and services.